Ida, Michigan
Current Conditions -  °F | °C
As of 12:53 PM on Friday 24 Oct 2014 (Local Time) from KTTF Reporting Station
Overcast Overcast  
Wind Chill: 59°   Ceiling: 4600
Heat Index: 59°   Visibility: 10mi
Dew Point: 45°   Wind: 7mph
Humidity: 59%   Direction: 250°WSW
Pressure: 30.04"   Gusts: NA
Location:  41.91°N, 83.57°W
Report Text: KTTF 241653Z AUTO 25006KT 10SM OVC046 15/07 A3004 RMK AO2
Loading
Personal Weather Stations






























Interactive Weather Map
Tropical Storm Tracking
New forecast layout! Learn more

10-Day Weather Forecast

Advertisements
Track Severe Weather on mobile